sensor_id;sensor_type;location;lat;lon;timestamp;temperature;humidity
58809;DHT22;44579;51.672;7.834;2023-04-24T00:01:06;13.30;63.10
58809;DHT22;44579;51.672;7.834;2023-04-24T00:03:41;13.20;63.20
58809;DHT22;44579;51.672;7.834;2023-04-24T00:06:08;13.10;63.30
58809;DHT22;44579;51.672;7.834;2023-04-24T00:08:35;13.10;63.40
58809;DHT22;44579;51.672;7.834;2023-04-24T00:11:02;13.00;63.40
58809;DHT22;44579;51.672;7.834;2023-04-24T00:13:29;13.00;64.50
58809;DHT22;44579;51.672;7.834;2023-04-24T00:15:56;13.00;63.60
58809;DHT22;44579;51.672;7.834;2023-04-24T00:18:23;13.00;63.70
58809;DHT22;44579;51.672;7.834;2023-04-24T00:20:52;13.00;63.50
58809;DHT22;44579;51.672;7.834;2023-04-24T00:23:19;13.10;63.50
58809;DHT22;44579;51.672;7.834;2023-04-24T00:25:46;13.10;63.40
58809;DHT22;44579;51.672;7.834;2023-04-24T00:28:13;13.10;63.30
58809;DHT22;44579;51.672;7.834;2023-04-24T00:30:40;13.20;63.30
58809;DHT22;44579;51.672;7.834;2023-04-24T00:33:06;13.30;63.20
58809;DHT22;44579;51.672;7.834;2023-04-24T00:35:33;13.20;63.10
58809;DHT22;44579;51.672;7.834;2023-04-24T00:38:00;13.20;63.20
58809;DHT22;44579;51.672;7.834;2023-04-24T00:40:27;13.10;63.30
58809;DHT22;44579;51.672;7.834;2023-04-24T00:42:54;13.10;64.30
58809;DHT22;44579;51.672;7.834;2023-04-24T00:45:22;13.10;63.40
58809;DHT22;44579;51.672;7.834;2023-04-24T00:47:49;13.10;63.50
58809;DHT22;44579;51.672;7.834;2023-04-24T00:50:17;13.00;63.60
58809;DHT22;44579;51.672;7.834;2023-04-24T00:52:44;12.90;63.70
58809;DHT22;44579;51.672;7.834;2023-04-24T00:55:11;12.80;63.90
58809;DHT22;44579;51.672;7.834;2023-04-24T00:57:38;12.70;64.10
58809;DHT22;44579;51.672;7.834;2023-04-24T01:00:05;12.70;64.40
58809;DHT22;44579;51.672;7.834;2023-04-24T01:02:34;12.70;64.40
58809;DHT22;44579;51.672;7.834;2023-04-24T01:05:01;12.70;64.30
58809;DHT22;44579;51.672;7.834;2023-04-24T01:07:29;12.70;64.40
58809;DHT22;44579;51.672;7.834;2023-04-24T01:09:56;12.60;64.50
58809;DHT22;44579;51.672;7.834;2023-04-24T01:12:24;12.50;64.50
58809;DHT22;44579;51.672;7.834;2023-04-24T01:14:51;12.50;64.50
58809;DHT22;44579;51.672;7.834;2023-04-24T01:17:19;12.50;64.50
58809;DHT22;44579;51.672;7.834;2023-04-24T01:19:46;12.30;64.50
58809;DHT22;44579;51.672;7.834;2023-04-24T01:22:14;12.30;64.60
58809;DHT22;44579;51.672;7.834;2023-04-24T01:24:41;12.20;64.60
58809;DHT22;44579;51.672;7.834;2023-04-24T01:27:11;12.20;64.80
58809;DHT22;44579;51.672;7.834;2023-04-24T01:29:38;12.10;64.70
58809;DHT22;44579;51.672;7.834;2023-04-24T01:32:05;12.10;64.70
58809;DHT22;44579;51.672;7.834;2023-04-24T01:34:35;12.10;64.70
58809;DHT22;44579;51.672;7.834;2023-04-24T01:37:03;12.10;64.70
58809;DHT22;44579;51.672;7.834;2023-04-24T01:39:31;12.10;64.60
58809;DHT22;44579;51.672;7.834;2023-04-24T01:41:59;12.10;64.60
58809;DHT22;44579;51.672;7.834;2023-04-24T01:44:27;12.00;64.50
58809;DHT22;44579;51.672;7.834;2023-04-24T01:46:54;11.90;64.60
58809;DHT22;44579;51.672;7.834;2023-04-24T01:49:23;11.90;64.60
58809;DHT22;44579;51.672;7.834;2023-04-24T01:51:49;11.80;64.70
58809;DHT22;44579;51.672;7.834;2023-04-24T01:54:16;11.80;64.80
58809;DHT22;44579;51.672;7.834;2023-04-24T01:56:43;11.80;64.90
58809;DHT22;44579;51.672;7.834;2023-04-24T01:59:10;11.80;64.80
58809;DHT22;44579;51.672;7.834;2023-04-24T02:01:38;11.80;64.70
58809;DHT22;44579;51.672;7.834;2023-04-24T02:04:05;11.90;64.60
58809;DHT22;44579;51.672;7.834;2023-04-24T02:06:36;11.90;64.60
58809;DHT22;44579;51.672;7.834;2023-04-24T02:09:03;12.00;64.60
58809;DHT22;44579;51.672;7.834;2023-04-24T02:11:30;12.10;64.50
58809;DHT22;44579;51.672;7.834;2023-04-24T02:13:57;12.10;64.50
58809;DHT22;44579;51.672;7.834;2023-04-24T02:16:24;12.10;64.50
58809;DHT22;44579;51.672;7.834;2023-04-24T02:18:52;12.20;64.50
58809;DHT22;44579;51.672;7.834;2023-04-24T02:21:18;12.20;64.40
58809;DHT22;44579;51.672;7.834;2023-04-24T02:23:45;12.30;64.50
58809;DHT22;44579;51.672;7.834;2023-04-24T02:26:12;12.30;64.40
58809;DHT22;44579;51.672;7.834;2023-04-24T02:28:39;12.40;64.50
58809;DHT22;44579;51.672;7.834;2023-04-24T02:31:05;12.40;64.40
58809;DHT22;44579;51.672;7.834;2023-04-24T02:33:32;12.30;64.20
58809;DHT22;44579;51.672;7.834;2023-04-24T02:35:59;12.30;64.30
58809;DHT22;44579;51.672;7.834;2023-04-24T02:38:26;12.30;64.40
58809;DHT22;44579;51.672;7.834;2023-04-24T02:40:53;12.30;64.50
58809;DHT22;44579;51.672;7.834;2023-04-24T02:43:20;12.30;64.50
58809;DHT22;44579;51.672;7.834;2023-04-24T02:45:48;12.30;64.40
58809;DHT22;44579;51.672;7.834;2023-04-24T02:48:15;12.30;64.50
58809;DHT22;44579;51.672;7.834;2023-04-24T02:50:44;12.40;64.60
58809;DHT22;44579;51.672;7.834;2023-04-24T02:53:11;12.30;64.50
58809;DHT22;44579;51.672;7.834;2023-04-24T02:55:38;12.40;64.60
58809;DHT22;44579;51.672;7.834;2023-04-24T02:58:04;12.40;64.60
58809;DHT22;44579;51.672;7.834;2023-04-24T03:00:32;12.40;64.70
58809;DHT22;44579;51.672;7.834;2023-04-24T03:02:59;12.30;64.90
58809;DHT22;44579;51.672;7.834;2023-04-24T03:05:26;12.30;64.90
58809;DHT22;44579;51.672;7.834;2023-04-24T03:07:53;12.30;64.90
58809;DHT22;44579;51.672;7.834;2023-04-24T03:10:20;12.20;64.80
58809;DHT22;44579;51.672;7.834;2023-04-24T03:12:49;12.30;64.90
58809;DHT22;44579;51.672;7.834;2023-04-24T03:15:17;12.20;64.80
58809;DHT22;44579;51.672;7.834;2023-04-24T03:17:44;12.20;65.00
58809;DHT22;44579;51.672;7.834;2023-04-24T03:20:11;12.10;65.10
58809;DHT22;44579;51.672;7.834;2023-04-24T03:22:38;12.00;65.30
58809;DHT22;44579;51.672;7.834;2023-04-24T03:25:07;11.90;65.60
58809;DHT22;44579;51.672;7.834;2023-04-24T03:27:37;11.90;65.80
58809;DHT22;44579;51.672;7.834;2023-04-24T03:30:11;11.90;65.80
58809;DHT22;44579;51.672;7.834;2023-04-24T03:32:50;11.80;65.80
58809;DHT22;44579;51.672;7.834;2023-04-24T03:35:22;11.70;66.70
58809;DHT22;44579;51.672;7.834;2023-04-24T03:37:50;11.70;65.80
58809;DHT22;44579;51.672;7.834;2023-04-24T03:40:37;11.50;66.00
58809;DHT22;44579;51.672;7.834;2023-04-24T03:43:14;11.40;66.20
58809;DHT22;44579;51.672;7.834;2023-04-24T03:45:41;11.40;66.30
58809;DHT22;44579;51.672;7.834;2023-04-24T03:48:09;11.20;66.30
58809;DHT22;44579;51.672;7.834;2023-04-24T03:50:36;11.20;66.50
58809;DHT22;44579;51.672;7.834;2023-04-24T03:53:06;11.20;66.50
58809;DHT22;44579;51.672;7.834;2023-04-24T03:55:38;11.10;66.60
58809;DHT22;44579;51.672;7.834;2023-04-24T03:58:05;11.10;66.60
58809;DHT22;44579;51.672;7.834;2023-04-24T04:00:32;11.10;66.80
58809;DHT22;44579;51.672;7.834;2023-04-24T04:03:19;11.10;67.10
58809;DHT22;44579;51.672;7.834;2023-04-24T04:05:49;11.10;68.00
58809;DHT22;44579;51.672;7.834;2023-04-24T04:08:16;11.20;67.20
58809;DHT22;44579;51.672;7.834;2023-04-24T04:10:43;11.20;67.20
58809;DHT22;44579;51.672;7.834;2023-04-24T04:13:09;11.20;67.30
58809;DHT22;44579;51.672;7.834;2023-04-24T04:15:36;11.10;67.10
58809;DHT22;44579;51.672;7.834;2023-04-24T04:18:03;11.10;67.20
58809;DHT22;44579;51.672;7.834;2023-04-24T04:20:31;11.10;67.10
58809;DHT22;44579;51.672;7.834;2023-04-24T04:22:59;11.20;67.00
58809;DHT22;44579;51.672;7.834;2023-04-24T04:25:39;11.20;67.00
58809;DHT22;44579;51.672;7.834;2023-04-24T04:28:05;11.20;67.10
58809;DHT22;44579;51.672;7.834;2023-04-24T04:30:32;11.20;67.00
58809;DHT22;44579;51.672;7.834;2023-04-24T04:33:02;11.30;67.00
58809;DHT22;44579;51.672;7.834;2023-04-24T04:35:31;11.30;67.00
58809;DHT22;44579;51.672;7.834;2023-04-24T04:37:58;11.30;67.00
58809;DHT22;44579;51.672;7.834;2023-04-24T04:40:48;11.30;67.20
58809;DHT22;44579;51.672;7.834;2023-04-24T04:43:16;11.30;67.20
58809;DHT22;44579;51.672;7.834;2023-04-24T04:45:50;11.40;67.30
58809;DHT22;44579;51.672;7.834;2023-04-24T04:48:36;11.40;67.10
58809;DHT22;44579;51.672;7.834;2023-04-24T04:51:04;11.50;67.20
58809;DHT22;44579;51.672;7.834;2023-04-24T04:53:32;11.50;67.20
58809;DHT22;44579;51.672;7.834;2023-04-24T04:55:58;11.50;67.30
58809;DHT22;44579;51.672;7.834;2023-04-24T04:58:46;11.50;67.40
58809;DHT22;44579;51.672;7.834;2023-04-24T05:01:15;11.50;68.20
58809;DHT22;44579;51.672;7.834;2023-04-24T05:03:45;11.60;67.30
58809;DHT22;44579;51.672;7.834;2023-04-24T05:06:14;11.60;67.30
58809;DHT22;44579;51.672;7.834;2023-04-24T05:08:44;11.60;67.30
58809;DHT22;44579;51.672;7.834;2023-04-24T05:11:22;11.60;67.30
58809;DHT22;44579;51.672;7.834;2023-04-24T05:13:48;11.60;67.50
58809;DHT22;44579;51.672;7.834;2023-04-24T05:16:23;11.60;67.70
58809;DHT22;44579;51.672;7.834;2023-04-24T05:18:52;11.60;68.60
58809;DHT22;44579;51.672;7.834;2023-04-24T05:21:24;11.60;67.70
58809;DHT22;44579;51.672;7.834;2023-04-24T05:23:52;11.60;68.00
58809;DHT22;44579;51.672;7.834;2023-04-24T05:26:33;11.60;68.00
58809;DHT22;44579;51.672;7.834;2023-04-24T05:29:00;11.60;68.10
58809;DHT22;44579;51.672;7.834;2023-04-24T05:31:27;11.60;68.10
58809;DHT22;44579;51.672;7.834;2023-04-24T05:33:54;11.60;68.30
58809;DHT22;44579;51.672;7.834;2023-04-24T05:36:21;11.60;68.30
58809;DHT22;44579;51.672;7.834;2023-04-24T05:38:48;11.70;68.40
58809;DHT22;44579;51.672;7.834;2023-04-24T05:41:15;11.70;68.40
58809;DHT22;44579;51.672;7.834;2023-04-24T05:43:42;11.60;68.60
58809;DHT22;44579;51.672;7.834;2023-04-24T05:46:09;11.50;69.00
58809;DHT22;44579;51.672;7.834;2023-04-24T05:48:36;11.50;69.10
58809;DHT22;44579;51.672;7.834;2023-04-24T05:51:03;11.60;69.20
58809;DHT22;44579;51.672;7.834;2023-04-24T05:53:30;11.60;68.90
58809;DHT22;44579;51.672;7.834;2023-04-24T05:55:57;11.60;68.90
58809;DHT22;44579;51.672;7.834;2023-04-24T05:58:25;11.70;68.90
58809;DHT22;44579;51.672;7.834;2023-04-24T06:00:51;11.60;69.00
58809;DHT22;44579;51.672;7.834;2023-04-24T06:03:18;11.70;69.10
58809;DHT22;44579;51.672;7.834;2023-04-24T06:05:48;11.80;69.20
58809;DHT22;44579;51.672;7.834;2023-04-24T06:08:16;11.80;69.30
58809;DHT22;44579;51.672;7.834;2023-04-24T06:10:44;11.80;69.40
58809;DHT22;44579;51.672;7.834;2023-04-24T06:13:11;11.90;69.50
58809;DHT22;44579;51.672;7.834;2023-04-24T06:15:43;12.00;69.50
58809;DHT22;44579;51.672;7.834;2023-04-24T06:18:16;11.90;69.70
58809;DHT22;44579;51.672;7.834;2023-04-24T06:20:43;11.90;69.90
58809;DHT22;44579;51.672;7.834;2023-04-24T06:23:09;11.90;69.80
58809;DHT22;44579;51.672;7.834;2023-04-24T06:25:39;11.90;69.80
58809;DHT22;44579;51.672;7.834;2023-04-24T06:28:06;11.80;70.00
58809;DHT22;44579;51.672;7.834;2023-04-24T06:30:34;11.80;70.30
58809;DHT22;44579;51.672;7.834;2023-04-24T06:33:01;11.80;70.30
58809;DHT22;44579;51.672;7.834;2023-04-24T06:35:44;11.90;70.30
58809;DHT22;44579;51.672;7.834;2023-04-24T06:38:11;11.90;70.40
58809;DHT22;44579;51.672;7.834;2023-04-24T06:40:39;11.90;70.40
58809;DHT22;44579;51.672;7.834;2023-04-24T06:43:06;11.80;70.70
58809;DHT22;44579;51.672;7.834;2023-04-24T06:45:34;11.70;71.20
58809;DHT22;44579;51.672;7.834;2023-04-24T06:48:00;11.70;71.20
58809;DHT22;44579;51.672;7.834;2023-04-24T06:50:27;11.70;71.00
58809;DHT22;44579;51.672;7.834;2023-04-24T06:52:54;11.70;70.90
58809;DHT22;44579;51.672;7.834;2023-04-24T06:55:20;11.80;70.90
58809;DHT22;44579;51.672;7.834;2023-04-24T06:57:47;11.80;70.80
58809;DHT22;44579;51.672;7.834;2023-04-24T07:00:14;11.80;70.80
58809;DHT22;44579;51.672;7.834;2023-04-24T07:02:41;11.80;70.90
58809;DHT22;44579;51.672;7.834;2023-04-24T07:05:08;11.80;71.00
58809;DHT22;44579;51.672;7.834;2023-04-24T07:07:35;11.80;71.00
58809;DHT22;44579;51.672;7.834;2023-04-24T07:10:04;11.90;71.10
58809;DHT22;44579;51.672;7.834;2023-04-24T07:12:31;11.90;71.50
58809;DHT22;44579;51.672;7.834;2023-04-24T07:15:00;11.90;71.50
58809;DHT22;44579;51.672;7.834;2023-04-24T07:17:27;11.90;71.70
58809;DHT22;44579;51.672;7.834;2023-04-24T07:19:54;11.90;71.70
58809;DHT22;44579;51.672;7.834;2023-04-24T07:22:21;11.90;71.60
58809;DHT22;44579;51.672;7.834;2023-04-24T07:24:47;11.80;71.90
58809;DHT22;44579;51.672;7.834;2023-04-24T07:27:14;11.70;71.90
58809;DHT22;44579;51.672;7.834;2023-04-24T07:29:42;11.70;72.00
58809;DHT22;44579;51.672;7.834;2023-04-24T07:32:09;11.70;72.10
58809;DHT22;44579;51.672;7.834;2023-04-24T07:34:36;11.70;72.20
58809;DHT22;44579;51.672;7.834;2023-04-24T07:37:02;11.90;72.10
58809;DHT22;44579;51.672;7.834;2023-04-24T07:39:29;12.00;72.00
58809;DHT22;44579;51.672;7.834;2023-04-24T07:41:56;12.10;72.40
58809;DHT22;44579;51.672;7.834;2023-04-24T07:44:23;12.20;72.50
58809;DHT22;44579;51.672;7.834;2023-04-24T07:46:50;12.20;72.40
58809;DHT22;44579;51.672;7.834;2023-04-24T07:49:17;12.20;72.50
58809;DHT22;44579;51.672;7.834;2023-04-24T07:51:45;12.20;72.70
58809;DHT22;44579;51.672;7.834;2023-04-24T07:54:12;12.10;72.70
58809;DHT22;44579;51.672;7.834;2023-04-24T07:56:40;12.10;72.90
58809;DHT22;44579;51.672;7.834;2023-04-24T07:59:08;11.90;73.00
58809;DHT22;44579;51.672;7.834;2023-04-24T08:01:36;11.90;73.20
58809;DHT22;44579;51.672;7.834;2023-04-24T08:04:03;11.90;73.00
58809;DHT22;44579;51.672;7.834;2023-04-24T08:06:30;11.80;73.00
58809;DHT22;44579;51.672;7.834;2023-04-24T08:08:59;11.80;73.20
58809;DHT22;44579;51.672;7.834;2023-04-24T08:11:26;11.70;73.30
58809;DHT22;44579;51.672;7.834;2023-04-24T08:13:53;11.60;73.50
58809;DHT22;44579;51.672;7.834;2023-04-24T08:16:21;11.60;73.60
58809;DHT22;44579;51.672;7.834;2023-04-24T08:18:50;11.70;73.40
58809;DHT22;44579;51.672;7.834;2023-04-24T08:21:17;11.70;73.20
58809;DHT22;44579;51.672;7.834;2023-04-24T08:23:45;11.70;73.00
58809;DHT22;44579;51.672;7.834;2023-04-24T08:26:12;11.80;72.90
58809;DHT22;44579;51.672;7.834;2023-04-24T08:28:39;11.70;72.70
58809;DHT22;44579;51.672;7.834;2023-04-24T08:31:06;11.70;72.80
58809;DHT22;44579;51.672;7.834;2023-04-24T08:33:33;11.70;72.80
58809;DHT22;44579;51.672;7.834;2023-04-24T08:36:03;11.70;72.80
58809;DHT22;44579;51.672;7.834;2023-04-24T08:38:31;11.60;73.10
58809;DHT22;44579;51.672;7.834;2023-04-24T08:40:58;11.60;73.30
58809;DHT22;44579;51.672;7.834;2023-04-24T08:43:26;11.60;73.40
58809;DHT22;44579;51.672;7.834;2023-04-24T08:45:57;11.70;73.40
58809;DHT22;44579;51.672;7.834;2023-04-24T08:48:24;11.90;73.00
58809;DHT22;44579;51.672;7.834;2023-04-24T08:50:58;12.10;72.70
58809;DHT22;44579;51.672;7.834;2023-04-24T08:53:25;12.10;72.70
58809;DHT22;44579;51.672;7.834;2023-04-24T08:55:54;12.10;72.70
58809;DHT22;44579;51.672;7.834;2023-04-24T08:58:20;12.00;72.70
58809;DHT22;44579;51.672;7.834;2023-04-24T09:00:48;11.90;72.90
58809;DHT22;44579;51.672;7.834;2023-04-24T09:03:16;11.80;72.90
58809;DHT22;44579;51.672;7.834;2023-04-24T09:05:44;11.60;73.10
58809;DHT22;44579;51.672;7.834;2023-04-24T09:08:13;11.50;73.20
58809;DHT22;44579;51.672;7.834;2023-04-24T09:10:40;11.50;73.50
58809;DHT22;44579;51.672;7.834;2023-04-24T09:13:07;11.40;73.30
58809;DHT22;44579;51.672;7.834;2023-04-24T09:15:36;11.40;73.50
58809;DHT22;44579;51.672;7.834;2023-04-24T09:18:04;11.40;73.40
58809;DHT22;44579;51.672;7.834;2023-04-24T09:20:31;11.50;73.20
58809;DHT22;44579;51.672;7.834;2023-04-24T09:22:58;11.70;73.00
58809;DHT22;44579;51.672;7.834;2023-04-24T09:25:30;11.80;72.90
58809;DHT22;44579;51.672;7.834;2023-04-24T09:27:59;12.00;72.60
58809;DHT22;44579;51.672;7.834;2023-04-24T09:30:27;12.00;72.40
58809;DHT22;44579;51.672;7.834;2023-04-24T09:33:13;12.00;72.40
58809;DHT22;44579;51.672;7.834;2023-04-24T09:35:41;11.80;72.40
58809;DHT22;44579;51.672;7.834;2023-04-24T09:38:08;11.70;72.90
58809;DHT22;44579;51.672;7.834;2023-04-24T09:40:35;11.50;73.10
58809;DHT22;44579;51.672;7.834;2023-04-24T09:43:09;11.40;73.40
58809;DHT22;44579;51.672;7.834;2023-04-24T09:45:37;11.30;73.70
58809;DHT22;44579;51.672;7.834;2023-04-24T09:48:04;11.30;73.70
58809;DHT22;44579;51.672;7.834;2023-04-24T09:50:33;11.30;73.80
58809;DHT22;44579;51.672;7.834;2023-04-24T09:53:01;11.20;73.80
58809;DHT22;44579;51.672;7.834;2023-04-24T09:55:31;11.20;73.80
58809;DHT22;44579;51.672;7.834;2023-04-24T09:57:58;11.30;73.80
58809;DHT22;44579;51.672;7.834;2023-04-24T10:00:30;11.40;73.70
58809;DHT22;44579;51.672;7.834;2023-04-24T10:02:58;11.40;73.60
58809;DHT22;44579;51.672;7.834;2023-04-24T10:05:27;11.50;73.60
58809;DHT22;44579;51.672;7.834;2023-04-24T10:08:04;11.60;73.50
58809;DHT22;44579;51.672;7.834;2023-04-24T10:10:31;11.50;73.50
58809;DHT22;44579;51.672;7.834;2023-04-24T10:12:59;11.50;73.60
58809;DHT22;44579;51.672;7.834;2023-04-24T10:15:26;11.40;73.70
58809;DHT22;44579;51.672;7.834;2023-04-24T10:17:54;11.30;73.90
58809;DHT22;44579;51.672;7.834;2023-04-24T10:20:25;11.30;74.00
58809;DHT22;44579;51.672;7.834;2023-04-24T10:22:55;11.30;74.20
58809;DHT22;44579;51.672;7.834;2023-04-24T10:25:23;11.30;74.10
58809;DHT22;44579;51.672;7.834;2023-04-24T10:27:50;11.40;74.10
58809;DHT22;44579;51.672;7.834;2023-04-24T10:30:19;11.40;74.00
58809;DHT22;44579;51.672;7.834;2023-04-24T10:32:46;11.50;74.60
58809;DHT22;44579;51.672;7.834;2023-04-24T10:35:13;11.50;73.80
58809;DHT22;44579;51.672;7.834;2023-04-24T10:37:40;11.40;74.20
58809;DHT22;44579;51.672;7.834;2023-04-24T10:40:09;11.50;74.50
58809;DHT22;44579;51.672;7.834;2023-04-24T10:42:39;11.50;74.50
58809;DHT22;44579;51.672;7.834;2023-04-24T10:45:07;11.60;74.60
58809;DHT22;44579;51.672;7.834;2023-04-24T10:47:42;11.60;74.50
58809;DHT22;44579;51.672;7.834;2023-04-24T10:50:10;11.70;74.50
58809;DHT22;44579;51.672;7.834;2023-04-24T10:52:44;11.80;74.50
58809;DHT22;44579;51.672;7.834;2023-04-24T10:55:12;11.80;74.30
58809;DHT22;44579;51.672;7.834;2023-04-24T10:57:39;11.80;74.40
58809;DHT22;44579;51.672;7.834;2023-04-24T11:00:13;11.70;74.40
58809;DHT22;44579;51.672;7.834;2023-04-24T11:02:40;11.60;74.40
58809;DHT22;44579;51.672;7.834;2023-04-24T11:05:16;11.40;74.80
58809;DHT22;44579;51.672;7.834;2023-04-24T11:10:32;11.20;75.80
58809;DHT22;44579;51.672;7.834;2023-04-24T11:12:58;11.00;76.00
58809;DHT22;44579;51.672;7.834;2023-04-24T11:15:25;10.90;76.20
58809;DHT22;44579;51.672;7.834;2023-04-24T11:17:52;10.80;76.10
58809;DHT22;44579;51.672;7.834;2023-04-24T11:20:22;10.70;76.30
58809;DHT22;44579;51.672;7.834;2023-04-24T11:22:54;10.60;76.30
58809;DHT22;44579;51.672;7.834;2023-04-24T11:25:22;10.70;76.30
58809;DHT22;44579;51.672;7.834;2023-04-24T11:28:02;10.60;76.10
58809;DHT22;44579;51.672;7.834;2023-04-24T11:30:29;10.70;76.00
58809;DHT22;44579;51.672;7.834;2023-04-24T11:33:01;10.60;76.10
58809;DHT22;44579;51.672;7.834;2023-04-24T11:35:28;10.70;76.20
58809;DHT22;44579;51.672;7.834;2023-04-24T11:37:57;10.70;76.10
58809;DHT22;44579;51.672;7.834;2023-04-24T11:40:27;10.70;75.90
58809;DHT22;44579;51.672;7.834;2023-04-24T11:42:54;10.80;75.50
58809;DHT22;44579;51.672;7.834;2023-04-24T11:45:26;10.70;75.50
58809;DHT22;44579;51.672;7.834;2023-04-24T11:47:55;10.60;75.50
58809;DHT22;44579;51.672;7.834;2023-04-24T11:50:23;10.70;75.70
58809;DHT22;44579;51.672;7.834;2023-04-24T11:52:50;10.60;76.00
58809;DHT22;44579;51.672;7.834;2023-04-24T11:57:45;10.60;76.20
58809;DHT22;44579;51.672;7.834;2023-04-24T12:00:19;10.60;76.20
58809;DHT22;44579;51.672;7.834;2023-04-24T12:02:47;10.70;76.30
58809;DHT22;44579;51.672;7.834;2023-04-24T12:07:48;10.70;76.50
58809;DHT22;44579;51.672;7.834;2023-04-24T12:10:19;10.70;76.60
58809;DHT22;44579;51.672;7.834;2023-04-24T12:12:46;10.80;76.70
58809;DHT22;44579;51.672;7.834;2023-04-24T12:15:13;10.80;76.80
58809;DHT22;44579;51.672;7.834;2023-04-24T12:17:42;10.90;76.90
58809;DHT22;44579;51.672;7.834;2023-04-24T12:20:10;10.90;76.90
58809;DHT22;44579;51.672;7.834;2023-04-24T12:22:47;11.00;77.20
58809;DHT22;44579;51.672;7.834;2023-04-24T12:25:15;11.00;77.20
58809;DHT22;44579;51.672;7.834;2023-04-24T12:27:42;11.00;77.40
58809;DHT22;44579;51.672;7.834;2023-04-24T12:30:10;11.10;77.70
58809;DHT22;44579;51.672;7.834;2023-04-24T12:32:44;11.20;77.60
58809;DHT22;44579;51.672;7.834;2023-04-24T12:35:12;11.30;77.20
58809;DHT22;44579;51.672;7.834;2023-04-24T12:37:41;11.40;77.20
58809;DHT22;44579;51.672;7.834;2023-04-24T12:40:12;11.40;78.10
58809;DHT22;44579;51.672;7.834;2023-04-24T12:42:43;11.40;77.20
58809;DHT22;44579;51.672;7.834;2023-04-24T12:45:10;11.30;77.50
58809;DHT22;44579;51.672;7.834;2023-04-24T12:47:39;11.30;77.70
58809;DHT22;44579;51.672;7.834;2023-04-24T12:50:07;11.20;77.80
58809;DHT22;44579;51.672;7.834;2023-04-24T12:52:34;11.20;77.90
58809;DHT22;44579;51.672;7.834;2023-04-24T12:55:00;11.20;77.80
58809;DHT22;44579;51.672;7.834;2023-04-24T12:57:28;11.20;77.60
58809;DHT22;44579;51.672;7.834;2023-04-24T12:59:56;11.30;77.40
58809;DHT22;44579;51.672;7.834;2023-04-24T13:02:23;11.30;77.00
58809;DHT22;44579;51.672;7.834;2023-04-24T13:04:51;11.30;77.00
58809;DHT22;44579;51.672;7.834;2023-04-24T13:07:18;11.40;76.90
58809;DHT22;44579;51.672;7.834;2023-04-24T13:09:45;11.40;77.70
58809;DHT22;44579;51.672;7.834;2023-04-24T13:12:12;11.50;77.70
58809;DHT22;44579;51.672;7.834;2023-04-24T13:14:41;11.60;76.70
58809;DHT22;44579;51.672;7.834;2023-04-24T13:17:08;11.60;76.50
58809;DHT22;44579;51.672;7.834;2023-04-24T13:19:40;11.60;76.60
58809;DHT22;44579;51.672;7.834;2023-04-24T13:22:08;11.60;76.60
58809;DHT22;44579;51.672;7.834;2023-04-24T13:24:35;11.50;76.60
58809;DHT22;44579;51.672;7.834;2023-04-24T13:27:05;11.40;76.60
58809;DHT22;44579;51.672;7.834;2023-04-24T13:29:32;11.30;77.00
58809;DHT22;44579;51.672;7.834;2023-04-24T13:31:58;11.20;77.20
58809;DHT22;44579;51.672;7.834;2023-04-24T13:34:26;11.10;77.30
58809;DHT22;44579;51.672;7.834;2023-04-24T13:36:53;11.10;77.30
58809;DHT22;44579;51.672;7.834;2023-04-24T13:39:20;11.10;77.30
58809;DHT22;44579;51.672;7.834;2023-04-24T13:41:48;11.10;77.20
58809;DHT22;44579;51.672;7.834;2023-04-24T13:44:16;11.20;77.10
58809;DHT22;44579;51.672;7.834;2023-04-24T13:46:44;11.20;77.00
58809;DHT22;44579;51.672;7.834;2023-04-24T13:49:12;11.30;77.00
58809;DHT22;44579;51.672;7.834;2023-04-24T13:51:40;11.40;77.10
58809;DHT22;44579;51.672;7.834;2023-04-24T13:54:07;11.50;76.80
58809;DHT22;44579;51.672;7.834;2023-04-24T13:56:33;11.60;76.90
58809;DHT22;44579;51.672;7.834;2023-04-24T13:59:00;11.70;76.80
58809;DHT22;44579;51.672;7.834;2023-04-24T14:01:28;11.70;76.90
58809;DHT22;44579;51.672;7.834;2023-04-24T14:03:55;11.80;77.20
58809;DHT22;44579;51.672;7.834;2023-04-24T14:06:22;11.70;77.30
58809;DHT22;44579;51.672;7.834;2023-04-24T14:08:49;11.70;77.50
58809;DHT22;44579;51.672;7.834;2023-04-24T14:11:17;11.80;77.20
58809;DHT22;44579;51.672;7.834;2023-04-24T14:13:44;11.80;77.20
58809;DHT22;44579;51.672;7.834;2023-04-24T14:16:12;11.70;77.20
58809;DHT22;44579;51.672;7.834;2023-04-24T14:18:40;11.70;77.50
58809;DHT22;44579;51.672;7.834;2023-04-24T14:21:07;11.70;77.40
58809;DHT22;44579;51.672;7.834;2023-04-24T14:23:34;11.70;77.20
58809;DHT22;44579;51.672;7.834;2023-04-24T14:26:02;11.70;77.00
58809;DHT22;44579;51.672;7.834;2023-04-24T14:28:29;11.70;77.30
58809;DHT22;44579;51.672;7.834;2023-04-24T14:30:56;11.70;77.60
58809;DHT22;44579;51.672;7.834;2023-04-24T14:33:23;11.70;77.90
58809;DHT22;44579;51.672;7.834;2023-04-24T14:35:49;11.80;77.90
58809;DHT22;44579;51.672;7.834;2023-04-24T14:38:16;11.80;78.00
58809;DHT22;44579;51.672;7.834;2023-04-24T14:40:43;11.90;78.10
58809;DHT22;44579;51.672;7.834;2023-04-24T14:43:30;12.00;78.10
58809;DHT22;44579;51.672;7.834;2023-04-24T14:45:56;12.00;78.00
58809;DHT22;44579;51.672;7.834;2023-04-24T14:48:23;12.00;78.10
58809;DHT22;44579;51.672;7.834;2023-04-24T14:50:50;12.10;78.10
58809;DHT22;44579;51.672;7.834;2023-04-24T14:53:17;12.10;77.70
58809;DHT22;44579;51.672;7.834;2023-04-24T14:55:45;12.00;77.70
58809;DHT22;44579;51.672;7.834;2023-04-24T14:58:11;11.80;77.80
58809;DHT22;44579;51.672;7.834;2023-04-24T15:00:38;11.80;77.90
58809;DHT22;44579;51.672;7.834;2023-04-24T15:03:05;11.70;77.80
58809;DHT22;44579;51.672;7.834;2023-04-24T15:05:33;11.50;77.70
58809;DHT22;44579;51.672;7.834;2023-04-24T15:08:00;11.40;78.00
58809;DHT22;44579;51.672;7.834;2023-04-24T15:10:27;11.40;78.20
58809;DHT22;44579;51.672;7.834;2023-04-24T15:12:55;11.40;78.20
58809;DHT22;44579;51.672;7.834;2023-04-24T15:15:22;11.50;78.10
58809;DHT22;44579;51.672;7.834;2023-04-24T15:17:49;11.60;77.70
58809;DHT22;44579;51.672;7.834;2023-04-24T15:20:16;11.70;77.30
58809;DHT22;44579;51.672;7.834;2023-04-24T15:22:43;11.70;77.00
58809;DHT22;44579;51.672;7.834;2023-04-24T15:25:09;11.70;76.90
58809;DHT22;44579;51.672;7.834;2023-04-24T15:27:43;11.60;77.00
58809;DHT22;44579;51.672;7.834;2023-04-24T15:30:10;11.50;77.10
58809;DHT22;44579;51.672;7.834;2023-04-24T15:32:37;11.40;77.40
58809;DHT22;44579;51.672;7.834;2023-04-24T15:35:04;11.40;77.40
58809;DHT22;44579;51.672;7.834;2023-04-24T15:37:35;11.50;77.70
58809;DHT22;44579;51.672;7.834;2023-04-24T15:40:02;11.50;77.30
58809;DHT22;44579;51.672;7.834;2023-04-24T15:42:31;11.60;77.40
58809;DHT22;44579;51.672;7.834;2023-04-24T15:44:58;11.60;77.40